createdAt,value
2018-10-09T00:02:27.491Z,8.05
2018-10-09T00:04:56.203Z,8.13
2018-10-09T00:07:25.679Z,8.13
2018-10-09T00:09:54.554Z,8.20
2018-10-09T00:12:23.424Z,8.21
2018-10-09T00:14:53.041Z,8.21
2018-10-09T00:17:23.393Z,8.28
2018-10-09T00:19:52.175Z,8.33
2018-10-09T00:22:21.660Z,8.38
2018-10-09T00:24:50.883Z,8.43
2018-10-09T00:27:20.056Z,8.44
2018-10-09T00:29:49.299Z,8.50
2018-10-09T00:32:19.420Z,8.49
2018-10-09T00:34:48.860Z,8.44
2018-10-09T00:37:17.593Z,8.43
2018-10-09T00:39:47.179Z,8.45
2018-10-09T00:42:16.728Z,8.39
2018-10-09T00:44:45.529Z,8.37
2018-10-09T00:47:14.198Z,8.45
2018-10-09T00:49:43.106Z,8.45
2018-10-09T00:52:11.929Z,8.45
2018-10-09T00:54:40.754Z,8.47
2018-10-09T00:57:09.750Z,8.54
2018-10-09T00:59:39.871Z,8.46
2018-10-09T01:02:09.285Z,8.47
2018-10-09T01:04:37.975Z,8.54
2018-10-09T01:07:06.988Z,8.61
2018-10-09T01:09:35.859Z,8.61
2018-10-09T01:12:04.728Z,8.66
2018-10-09T01:14:33.444Z,8.74
2018-10-09T01:17:02.364Z,8.81
2018-10-09T01:19:30.997Z,8.88
2018-10-09T01:21:59.966Z,8.94
2018-10-09T01:24:30.761Z,9.03
2018-10-09T01:27:00.400Z,9.08
2018-10-09T01:29:29.905Z,9.08
2018-10-09T01:31:59.009Z,9.12
2018-10-09T01:34:27.819Z,9.15
2018-10-09T01:36:57.397Z,9.21
2018-10-09T01:39:26.109Z,9.24
2018-10-09T01:41:54.921Z,9.28
2018-10-09T01:44:25.061Z,9.36
2018-10-09T01:46:54.301Z,9.41
2018-10-09T01:49:23.730Z,9.42
2018-10-09T01:51:52.622Z,9.47
2018-10-09T01:54:21.608Z,9.48
2018-10-09T01:56:50.294Z,9.49
2018-10-09T01:59:19.480Z,9.51
2018-10-09T02:01:48.199Z,9.54
2018-10-09T02:04:17.042Z,9.54
2018-10-09T02:06:46.071Z,9.52
2018-10-09T02:09:15.101Z,9.55
2018-10-09T02:11:43.747Z,9.55
2018-10-09T02:14:12.957Z,9.60
2018-10-09T02:16:42.750Z,9.62
2018-10-09T02:19:12.254Z,9.67
2018-10-09T02:21:41.374Z,9.68
2018-10-09T02:24:10.540Z,9.68
2018-10-09T02:26:39.469Z,9.68
2018-10-09T02:29:08.296Z,9.66
2018-10-09T02:31:37.455Z,9.67
2018-10-09T02:34:06.156Z,9.68
2018-10-09T02:36:34.910Z,9.67
2018-10-09T02:39:04.533Z,9.65
2018-10-09T02:41:33.297Z,9.61
2018-10-09T02:44:02.661Z,9.60
2018-10-09T02:46:31.616Z,9.59
2018-10-09T02:49:00.681Z,9.60
2018-10-09T02:51:29.448Z,9.58
2018-10-09T02:53:58.325Z,9.54
2018-10-09T02:56:27.125Z,9.52
2018-10-09T02:58:56.980Z,9.44
2018-10-09T03:01:26.012Z,9.35
2018-10-09T03:03:55.307Z,9.28
2018-10-09T03:06:24.279Z,9.19
2018-10-09T03:08:52.945Z,9.12
2018-10-09T03:11:22.870Z,9.00
2018-10-09T03:13:52.184Z,8.96
2018-10-09T03:16:21.233Z,8.86
2018-10-09T03:18:50.105Z,8.82
2018-10-09T03:21:18.855Z,8.80
2018-10-09T03:23:48.130Z,8.72
2018-10-09T03:26:17.085Z,8.70
2018-10-09T03:28:46.495Z,8.71
2018-10-09T03:31:15.359Z,8.79
2018-10-09T03:33:44.096Z,8.86
2018-10-09T03:36:13.170Z,8.87
2018-10-09T03:38:42.195Z,8.93
2018-10-09T03:41:11.155Z,8.93
2018-10-09T03:43:39.866Z,8.91
2018-10-09T03:46:09.150Z,8.92
2018-10-09T03:48:38.020Z,8.79
2018-10-09T03:51:06.901Z,8.71
2018-10-09T03:53:35.720Z,8.62
2018-10-09T03:56:04.820Z,8.54
2018-10-09T03:58:34.136Z,8.50
2018-10-09T04:01:03.275Z,8.44
2018-10-09T04:03:32.768Z,8.37
2018-10-09T04:06:01.979Z,8.32
2018-10-09T04:08:32.021Z,8.30
2018-10-09T04:11:01.262Z,8.18
2018-10-09T04:13:30.164Z,8.13
2018-10-09T04:15:58.872Z,8.01
2018-10-09T04:18:28.092Z,8.02
2018-10-09T04:20:57.380Z,8.01
2018-10-09T04:23:26.108Z,7.98
2018-10-09T04:25:54.995Z,7.97
2018-10-09T04:28:23.940Z,7.95
2018-10-09T04:30:52.797Z,7.86
2018-10-09T04:33:22.972Z,7.92
2018-10-09T04:35:52.336Z,7.98
2018-10-09T04:38:21.577Z,8.02
2018-10-09T04:40:50.245Z,8.12
2018-10-09T04:43:21.207Z,8.23
2018-10-09T04:45:51.420Z,8.34
2018-10-09T04:48:20.496Z,8.39
2018-10-09T04:50:49.936Z,8.42
2018-10-09T04:53:18.667Z,8.43
2018-10-09T04:55:47.381Z,8.47
2018-10-09T04:58:16.816Z,8.50
2018-10-09T05:00:45.931Z,8.49
2018-10-09T05:03:14.971Z,8.51
2018-10-09T05:05:44.230Z,8.59
2018-10-09T05:08:13.430Z,8.55
2018-10-09T05:10:42.713Z,8.59
2018-10-09T05:13:12.967Z,8.60
2018-10-09T05:15:42.097Z,8.62
2018-10-09T05:18:10.996Z,8.70
2018-10-09T05:20:39.653Z,8.71
2018-10-09T05:23:08.653Z,8.75
2018-10-09T05:25:37.932Z,8.83
2018-10-09T05:28:07.415Z,8.91
2018-10-09T05:30:36.557Z,8.96
2018-10-09T05:33:05.275Z,9.04
2018-10-09T05:35:34.160Z,9.01
2018-10-09T05:38:03.115Z,9.05
2018-10-09T05:40:32.168Z,9.09
2018-10-09T05:43:01.073Z,9.10
2018-10-09T05:45:29.824Z,9.13
2018-10-09T05:47:59.012Z,9.11
2018-10-09T05:50:28.465Z,9.13
2018-10-09T05:52:57.518Z,9.18
2018-10-09T05:55:26.683Z,9.25
2018-10-09T05:57:55.796Z,9.26
2018-10-09T06:00:25.323Z,9.29
2018-10-09T06:02:54.272Z,9.38
2018-10-09T06:05:23.377Z,9.42
2018-10-09T06:07:52.813Z,9.47
2018-10-09T06:10:21.876Z,9.42
2018-10-09T06:12:51.188Z,9.40
2018-10-09T06:15:20.453Z,9.40
2018-10-09T06:17:49.608Z,9.50
2018-10-09T06:20:18.922Z,9.48
2018-10-09T06:22:48.123Z,9.49
2018-10-09T06:25:17.303Z,9.53
2018-10-09T06:27:46.087Z,9.59
2018-10-09T06:30:14.862Z,9.71
2018-10-09T06:32:43.665Z,9.78
2018-10-09T06:35:12.471Z,9.88
2018-10-09T06:37:41.479Z,9.92
2018-10-09T06:40:10.716Z,10.00
2018-10-09T06:42:39.540Z,10.06
2018-10-09T06:45:09.208Z,10.19
2018-10-09T06:47:38.334Z,10.33
2018-10-09T06:50:07.582Z,10.42
2018-10-09T06:52:37.893Z,10.57
2018-10-09T06:55:06.996Z,10.80
2018-10-09T06:57:37.313Z,10.98
2018-10-09T07:00:06.122Z,11.13
2018-10-09T07:02:35.877Z,11.36
2018-10-09T07:05:04.942Z,11.61
2018-10-09T07:07:33.748Z,11.87
2018-10-09T07:10:02.900Z,12.19
2018-10-09T07:12:32.504Z,12.54
2018-10-09T07:15:01.797Z,12.78
2018-10-09T07:17:31.032Z,12.93
2018-10-09T07:20:00.163Z,13.08
2018-10-09T07:22:29.074Z,13.29
2018-10-09T07:24:58.896Z,13.27
2018-10-09T07:27:28.095Z,13.31
2018-10-09T07:29:57.063Z,13.29
2018-10-09T07:32:26.283Z,13.40
2018-10-09T07:34:55.488Z,13.52
2018-10-09T07:37:24.649Z,13.69
2018-10-09T07:39:53.602Z,13.89
2018-10-09T07:42:23.239Z,14.04
2018-10-09T07:44:51.919Z,14.35
2018-10-09T07:47:20.703Z,14.43
2018-10-09T07:49:49.853Z,14.59
2018-10-09T07:52:18.777Z,14.65
2018-10-09T07:54:47.613Z,14.51
2018-10-09T07:57:16.362Z,14.57
2018-10-09T07:59:45.743Z,14.58
2018-10-09T08:02:14.913Z,14.50
2018-10-09T08:04:44.296Z,14.44
2018-10-09T08:07:13.707Z,14.51
2018-10-09T08:09:42.752Z,14.62
2018-10-09T08:12:12.032Z,14.68
2018-10-09T08:14:40.799Z,14.56
2018-10-09T08:17:10.508Z,14.64
2018-10-09T08:19:39.256Z,14.72
2018-10-09T08:22:08.092Z,14.75
2018-10-09T08:24:37.047Z,14.71
2018-10-09T08:27:06.226Z,14.74
2018-10-09T08:29:35.693Z,14.78
2018-10-09T08:32:04.416Z,14.86
2018-10-09T08:34:33.959Z,14.91
2018-10-09T08:37:03.816Z,15.07
2018-10-09T08:39:32.519Z,15.14
2018-10-09T08:42:01.537Z,15.09
2018-10-09T08:44:30.944Z,15.08
2018-10-09T08:47:00.167Z,15.17
2018-10-09T08:49:29.203Z,15.29
2018-10-09T08:51:57.907Z,15.52
2018-10-09T08:54:26.949Z,15.64
2018-10-09T08:56:56.050Z,15.73
2018-10-09T08:59:25.133Z,15.68
2018-10-09T09:01:54.295Z,15.82
2018-10-09T09:04:23.200Z,16.03
2018-10-09T09:06:52.905Z,16.22
2018-10-09T09:09:22.014Z,16.46
2018-10-09T09:11:51.358Z,16.83
2018-10-09T09:14:20.152Z,17.33
2018-10-09T09:16:49.734Z,17.55
2018-10-09T09:19:18.959Z,17.92
2018-10-09T09:21:47.833Z,18.28
2018-10-09T09:24:17.417Z,18.27
2018-10-09T09:26:46.223Z,18.76
2018-10-09T09:29:14.888Z,19.36
2018-10-09T09:31:44.095Z,19.40
2018-10-09T09:34:12.977Z,19.83
2018-10-09T09:36:42.604Z,20.32
2018-10-09T09:39:11.900Z,21.20
2018-10-09T09:41:41.938Z,21.80
2018-10-09T09:44:11.352Z,22.34
2018-10-09T09:46:40.300Z,23.16
2018-10-09T09:49:09.793Z,24.34
2018-10-09T09:51:38.847Z,25.37
2018-10-09T09:54:08.094Z,25.32
2018-10-09T09:56:37.625Z,26.82
2018-10-09T09:59:06.672Z,28.20
2018-10-09T10:01:43.642Z,28.81
2018-10-09T10:04:14.768Z,29.90
2018-10-09T10:06:44.176Z,30.18
2018-10-09T10:09:14.229Z,30.14
2018-10-09T10:11:44.394Z,30.56
2018-10-09T10:14:13.223Z,31.12
2018-10-09T10:16:42.968Z,31.47
2018-10-09T10:19:13.187Z,32.62
2018-10-09T10:21:42.318Z,32.18
2018-10-09T10:24:11.549Z,31.99
2018-10-09T10:26:40.661Z,31.85
2018-10-09T10:29:09.692Z,33.27
2018-10-09T10:31:38.400Z,33.09
2018-10-09T10:34:07.427Z,32.83
2018-10-09T10:36:36.143Z,32.78
2018-10-09T10:39:07.044Z,32.46
2018-10-09T10:41:35.979Z,34.19
2018-10-09T10:44:05.296Z,34.76
2018-10-09T10:46:42.354Z,35.06
2018-10-09T10:49:13.936Z,35.09
2018-10-09T10:51:42.665Z,34.91
2018-10-09T10:54:12.802Z,35.09
2018-10-09T10:56:42.045Z,34.81
2018-10-09T10:59:10.938Z,34.28
2018-10-09T11:01:40.372Z,34.07
2018-10-09T11:04:09.455Z,34.74
2018-10-09T11:06:38.314Z,35.72
2018-10-09T11:09:10.216Z,36.29
2018-10-09T11:11:39.224Z,35.66
2018-10-09T11:14:08.651Z,36.01
2018-10-09T11:16:38.775Z,37.16
2018-10-09T11:19:09.053Z,38.14
2018-10-09T11:21:38.106Z,36.71
2018-10-09T11:24:07.055Z,37.55
2018-10-09T11:26:36.518Z,36.13
2018-10-09T11:29:05.875Z,35.89
2018-10-09T11:31:35.581Z,35.64
2018-10-09T11:34:04.347Z,35.80
2018-10-09T11:36:33.673Z,36.88
2018-10-09T11:39:02.463Z,37.47
2018-10-09T11:41:31.887Z,37.62
2018-10-09T11:44:00.763Z,35.99
2018-10-09T11:46:30.026Z,35.45
2018-10-09T11:48:59.634Z,33.29
2018-10-09T11:51:28.819Z,33.58
2018-10-09T11:53:57.548Z,33.54
2018-10-09T11:56:27.295Z,34.03
2018-10-09T11:58:56.102Z,35.62
2018-10-09T12:01:24.979Z,35.59
2018-10-09T12:03:54.209Z,35.83
2018-10-09T12:06:23.214Z,34.28
2018-10-09T12:08:52.623Z,33.86
2018-10-09T12:11:21.658Z,33.37
2018-10-09T12:13:50.395Z,31.99
2018-10-09T12:16:19.219Z,30.85
2018-10-09T12:18:47.951Z,31.12
2018-10-09T12:21:17.214Z,32.35
2018-10-09T12:23:46.850Z,33.33
2018-10-09T12:26:15.597Z,32.84
2018-10-09T12:28:45.271Z,33.51
2018-10-09T12:31:14.288Z,32.91
2018-10-09T12:33:44.500Z,31.62
2018-10-09T12:36:14.024Z,30.71
2018-10-09T12:38:43.050Z,30.05
2018-10-09T12:41:11.851Z,30.51
2018-10-09T12:43:40.638Z,31.32
2018-10-09T12:46:09.734Z,32.71
2018-10-09T12:48:38.550Z,33.64
2018-10-09T12:51:07.265Z,34.58
2018-10-09T12:53:36.695Z,35.61
2018-10-09T12:56:05.667Z,35.52
2018-10-09T12:58:34.623Z,36.29
2018-10-09T13:01:03.199Z,35.59
2018-10-09T13:03:31.987Z,35.40
2018-10-09T13:06:01.661Z,34.63
2018-10-09T13:08:30.456Z,35.67
2018-10-09T13:11:01.494Z,36.27
2018-10-09T13:13:30.390Z,36.04
2018-10-09T13:15:59.447Z,35.56
2018-10-09T13:18:29.280Z,34.74
2018-10-09T13:20:58.100Z,34.56
2018-10-09T13:23:27.081Z,34.40
2018-10-09T13:25:57.263Z,34.66
2018-10-09T13:28:26.445Z,33.54
2018-10-09T13:30:55.921Z,33.34
2018-10-09T13:33:25.013Z,33.06
2018-10-09T13:35:54.199Z,32.55
2018-10-09T13:38:23.101Z,31.51
2018-10-09T13:40:52.995Z,31.30
2018-10-09T13:43:21.918Z,30.57
2018-10-09T13:45:51.120Z,30.60
2018-10-09T13:48:20.342Z,30.11
2018-10-09T13:50:49.311Z,29.66
2018-10-09T13:53:18.680Z,30.53
2018-10-09T13:55:47.945Z,31.00
2018-10-09T13:58:17.134Z,31.18
2018-10-09T14:00:46.362Z,31.29
2018-10-09T14:03:15.394Z,31.65
2018-10-09T14:05:44.854Z,32.91
2018-10-09T14:08:13.639Z,32.94
2018-10-09T14:10:43.365Z,32.74
2018-10-09T14:13:12.209Z,32.83
2018-10-09T14:15:41.080Z,31.39
2018-10-09T14:18:10.028Z,30.38
2018-10-09T14:20:39.142Z,29.10
2018-10-09T14:23:08.507Z,28.52
2018-10-09T14:25:37.475Z,27.87
2018-10-09T14:28:06.993Z,27.41
2018-10-09T14:30:36.064Z,26.70
2018-10-09T14:33:05.289Z,26.14
2018-10-09T14:35:34.374Z,25.98
2018-10-09T14:38:03.813Z,25.61
2018-10-09T14:40:32.898Z,25.21
2018-10-09T14:43:02.190Z,25.16
2018-10-09T14:45:31.569Z,24.97
2018-10-09T14:48:00.666Z,24.93
2018-10-09T14:50:29.486Z,24.94
2018-10-09T14:52:59.237Z,24.72
2018-10-09T14:55:28.205Z,24.61
2018-10-09T14:57:56.834Z,24.34
2018-10-09T15:00:25.801Z,24.27
2018-10-09T15:02:55.015Z,24.14
2018-10-09T15:05:24.037Z,24.08
2018-10-09T15:07:53.103Z,24.08
2018-10-09T15:10:22.700Z,23.96
2018-10-09T15:12:51.515Z,23.80
2018-10-09T15:15:20.309Z,23.68
2018-10-09T15:17:49.309Z,23.57
2018-10-09T15:20:18.246Z,23.32
2018-10-09T15:22:47.042Z,23.17
2018-10-09T15:25:16.013Z,22.98
2018-10-09T15:27:45.283Z,22.90
2018-10-09T15:30:14.590Z,22.58
2018-10-09T15:32:43.315Z,22.44
2018-10-09T15:35:13.074Z,22.33
2018-10-09T15:37:42.714Z,22.16
2018-10-09T15:40:12.447Z,22.04
2018-10-09T15:42:41.228Z,21.95
2018-10-09T15:45:11.105Z,21.76
2018-10-09T15:47:40.030Z,21.79
2018-10-09T15:50:09.319Z,21.62
2018-10-09T15:52:38.511Z,21.37
2018-10-09T15:55:07.319Z,21.25
2018-10-09T15:57:35.969Z,21.04
2018-10-09T16:00:05.799Z,20.99
2018-10-09T16:02:35.315Z,20.80
2018-10-09T16:05:04.585Z,20.56
2018-10-09T16:07:33.745Z,20.55
2018-10-09T16:10:03.045Z,20.37
2018-10-09T16:12:32.049Z,20.22
2018-10-09T16:15:01.115Z,20.21
2018-10-09T16:17:29.939Z,20.00
2018-10-09T16:19:58.934Z,19.90
2018-10-09T16:22:28.042Z,19.71
2018-10-09T16:24:57.391Z,19.55
2018-10-09T16:27:27.246Z,19.55
2018-10-09T16:29:56.077Z,19.43
2018-10-09T16:32:25.300Z,19.27
2018-10-09T16:34:53.986Z,19.10
2018-10-09T16:37:22.692Z,19.08
2018-10-09T16:39:51.733Z,19.00
2018-10-09T16:42:20.994Z,18.78
2018-10-09T16:44:50.064Z,18.68
2018-10-09T16:47:19.711Z,18.56
2018-10-09T16:49:48.714Z,18.46
2018-10-09T16:52:17.888Z,18.31
2018-10-09T16:54:47.158Z,18.22
2018-10-09T16:57:17.366Z,18.01
2018-10-09T16:59:46.352Z,17.84
2018-10-09T17:02:15.205Z,17.76
2018-10-09T17:04:44.017Z,17.69
2018-10-09T17:07:13.262Z,17.54
2018-10-09T17:09:43.420Z,17.45
2018-10-09T17:12:12.712Z,17.39
2018-10-09T17:14:41.617Z,17.29
2018-10-09T17:17:10.980Z,17.25
2018-10-09T17:19:40.570Z,17.22
2018-10-09T17:22:10.916Z,17.12
2018-10-09T17:24:39.896Z,16.91
2018-10-09T17:27:09.044Z,16.82
2018-10-09T17:29:38.785Z,16.81
2018-10-09T17:32:08.030Z,16.70
2018-10-09T17:34:37.782Z,16.60
2018-10-09T17:37:06.814Z,16.52
2018-10-09T17:39:35.812Z,16.41
2018-10-09T17:42:05.213Z,16.30
2018-10-09T17:44:34.459Z,16.22
2018-10-09T17:47:07.433Z,16.12
2018-10-09T17:49:38.131Z,16.04
2018-10-09T17:52:07.159Z,15.88
2018-10-09T17:54:36.291Z,15.81
2018-10-09T17:57:05.593Z,15.57
2018-10-09T17:59:34.551Z,15.47
2018-10-09T18:02:03.931Z,15.45
2018-10-09T18:04:33.180Z,15.44
2018-10-09T18:07:02.432Z,15.39
2018-10-09T18:09:31.578Z,15.31
2018-10-09T18:12:01.002Z,15.31
2018-10-09T18:14:30.071Z,15.28
2018-10-09T18:16:59.454Z,15.21
2018-10-09T18:19:29.406Z,15.20
2018-10-09T18:21:58.175Z,15.06
2018-10-09T18:24:27.096Z,14.99
2018-10-09T18:26:56.166Z,14.90
2018-10-09T18:29:25.315Z,14.69
2018-10-09T18:31:54.511Z,14.64
2018-10-09T18:34:25.133Z,14.48
2018-10-09T18:36:55.391Z,14.38
2018-10-09T18:39:24.306Z,14.33
2018-10-09T18:41:53.814Z,14.35
2018-10-09T18:44:22.885Z,14.20
2018-10-09T18:46:52.027Z,14.18
2018-10-09T18:49:21.086Z,14.16
2018-10-09T18:51:50.287Z,14.16
2018-10-09T18:54:19.532Z,14.09
2018-10-09T18:56:48.782Z,14.01
2018-10-09T18:59:17.932Z,13.90
2018-10-09T19:01:46.781Z,13.63
2018-10-09T19:04:17.291Z,13.60
2018-10-09T19:06:46.580Z,13.58
2018-10-09T19:09:16.039Z,13.63
2018-10-09T19:11:45.266Z,13.57
2018-10-09T19:14:15.390Z,13.35
2018-10-09T19:16:44.680Z,13.23
2018-10-09T19:19:13.940Z,13.26
2018-10-09T19:21:42.956Z,13.25
2018-10-09T19:24:12.589Z,13.16
2018-10-09T19:26:42.021Z,13.13
2018-10-09T19:29:11.825Z,13.02
2018-10-09T19:31:40.780Z,12.88
2018-10-09T19:34:09.921Z,12.82
2018-10-09T19:36:39.380Z,12.90
2018-10-09T19:39:11.052Z,12.81
2018-10-09T19:41:40.495Z,12.72
2018-10-09T19:44:09.423Z,12.55
2018-10-09T19:46:39.442Z,12.33
2018-10-09T19:49:08.235Z,12.19
2018-10-09T19:51:37.522Z,12.15
2018-10-09T19:54:06.767Z,12.19
2018-10-09T19:56:35.880Z,12.04
2018-10-09T19:59:05.506Z,12.03
2018-10-09T20:01:34.312Z,11.99
2018-10-09T20:04:03.389Z,11.95
2018-10-09T20:06:32.748Z,11.88
2018-10-09T20:09:02.315Z,11.97
2018-10-09T20:11:31.228Z,11.83
2018-10-09T20:14:01.392Z,11.67
2018-10-09T20:16:30.831Z,11.65
2018-10-09T20:18:59.845Z,11.58
2018-10-09T20:21:29.048Z,11.49
2018-10-09T20:23:58.285Z,11.40
2018-10-09T20:26:27.371Z,11.36
2018-10-09T20:28:56.991Z,11.34
2018-10-09T20:31:26.548Z,11.34
2018-10-09T20:33:56.238Z,11.35
2018-10-09T20:36:25.368Z,11.24
2018-10-09T20:38:55.110Z,11.18
2018-10-09T20:41:23.893Z,11.05
2018-10-09T20:43:53.127Z,11.05
2018-10-09T20:46:22.278Z,11.06
2018-10-09T20:48:51.447Z,10.97
2018-10-09T20:51:20.788Z,10.68
2018-10-09T20:53:49.986Z,10.55
2018-10-09T20:56:19.071Z,10.52
2018-10-09T20:58:48.457Z,10.58
2018-10-09T21:01:17.666Z,10.60
2018-10-09T21:03:46.853Z,10.61
2018-10-09T21:06:17.898Z,10.51
2018-10-09T21:08:47.193Z,10.37
2018-10-09T21:11:16.505Z,10.18
2018-10-09T21:13:45.612Z,10.18
2018-10-09T21:16:15.017Z,10.27
2018-10-09T21:18:44.208Z,10.23
2018-10-09T21:21:13.613Z,10.09
2018-10-09T21:23:42.511Z,10.02
2018-10-09T21:26:11.865Z,9.89
2018-10-09T21:28:40.652Z,9.83
2018-10-09T21:31:10.537Z,9.93
2018-10-09T21:33:39.648Z,9.90
2018-10-09T21:36:08.814Z,9.85
2018-10-09T21:38:38.047Z,9.86
2018-10-09T21:41:07.026Z,9.87
2018-10-09T21:43:35.975Z,9.88
2018-10-09T21:46:05.553Z,9.87
2018-10-09T21:48:34.371Z,9.81
2018-10-09T21:51:03.305Z,9.69
2018-10-09T21:53:32.352Z,9.63
2018-10-09T21:56:01.033Z,9.63
2018-10-09T21:58:30.731Z,9.55
2018-10-09T22:01:04.993Z,9.54
2018-10-09T22:03:34.032Z,9.48
2018-10-09T22:06:03.642Z,9.56
2018-10-09T22:08:32.443Z,9.58
2018-10-09T22:11:01.668Z,9.47
2018-10-09T22:13:30.986Z,9.50
2018-10-09T22:16:00.294Z,9.43
2018-10-09T22:21:25.316Z,9.33
2018-10-09T22:23:54.982Z,9.30
2018-10-09T22:26:23.702Z,9.26
2018-10-09T22:28:52.938Z,9.12
2018-10-09T22:31:22.410Z,9.08
2018-10-09T22:33:51.340Z,9.08
2018-10-09T22:36:20.606Z,8.92
2018-10-09T22:38:49.384Z,8.91
2018-10-09T22:41:18.092Z,8.87
2018-10-09T22:43:47.189Z,8.89
2018-10-09T22:46:16.426Z,8.88
2018-10-09T22:48:45.808Z,8.82
2018-10-09T22:51:14.754Z,8.77
2018-10-09T22:53:43.669Z,8.77
2018-10-09T22:56:12.352Z,8.76
2018-10-09T22:58:41.137Z,8.70
2018-10-09T23:01:10.031Z,8.63
2018-10-09T23:03:38.570Z,8.64
2018-10-09T23:06:07.326Z,8.61
2018-10-09T23:08:36.471Z,8.48
2018-10-09T23:11:05.686Z,8.46
2018-10-09T23:13:34.924Z,8.45
2018-10-09T23:16:04.116Z,8.51
2018-10-09T23:18:33.021Z,8.35
2018-10-09T23:21:02.591Z,8.38
2018-10-09T23:23:31.690Z,8.33
2018-10-09T23:26:00.613Z,8.39
2018-10-09T23:28:30.355Z,8.39
2018-10-09T23:30:59.451Z,8.35
2018-10-09T23:33:28.591Z,8.35
2018-10-09T23:35:57.604Z,8.36
2018-10-09T23:38:27.082Z,8.33
2018-10-09T23:40:56.450Z,8.29
2018-10-09T23:43:25.517Z,8.29
2018-10-09T23:45:54.775Z,8.26
2018-10-09T23:48:23.345Z,8.27
2018-10-09T23:50:52.213Z,8.26
2018-10-09T23:53:21.536Z,8.23
2018-10-09T23:55:50.731Z,8.25
2018-10-09T23:58:20.087Z,8.09
